^^
Station Historical Data
Daily Summary for October 12, 2017 Units:  Metric    English   Both
« Previous Day
Next Day »
Daily Weekly Monthly Yearly Custom
  High: Low: Average:
Temperature: 29.5 °C 9.8 °C 19.9 °C
Dew Point: 6.1 °C -7.9 °C 0.8 °C
Humidity: 73% 12% 36%
Wind Speed: 20.9km/h 0km/h 9.7km/h
Wind Gust: 22.5km/h - -
Wind- - SW
Pressure: 1015.5 hPa 1010.7 hPa -
Precipitation: 0 mm    
Historical Graphs
 
 
Tabular Data for October 12, 2017
Time Temperature Dew Point Pressure Wind Wind Speed Wind Gust Humidity Rainfall Rate (Hourly) solar Conditions
03:50 12.3 °C 4 °C 1012.4 hPa SSW 14.3 km/h 17.7 km/h 57% 0 mm 0.0 W/m2
03:55 12.2 °C 4.2 °C 1012.4 hPa SSW 14.3 km/h 14.5 km/h 58% 0 mm 0.0 W/m2
04:00 12.1 °C 4.1 °C 1012.4 hPa SSW 11.1 km/h 12.9 km/h 58% 0 mm 0.0 W/m2
04:07 11.9 °C 4.6 °C 1012.8 hPa SSW 9.7 km/h 11.3 km/h 61% 0 mm 0.0 W/m2
04:21 11.6 °C 5 °C 1012.8 hPa SSW 6.4 km/h 9.7 km/h 64% 0 mm 0.0 W/m2
04:27 11.5 °C 5.1 °C 1012.8 hPa SSW 6.4 km/h 9.7 km/h 65% 0 mm 0.0 W/m2
04:36 11.3 °C 5.2 °C 1012.8 hPa SSW 7.9 km/h 11.3 km/h 66% 0 mm 0.0 W/m2
04:42 11.2 °C 5.3 °C 1013.1 hPa SSW 9.7 km/h 11.3 km/h 67% 0 mm 0.0 W/m2
04:52 10.9 °C 5.2 °C 1013.1 hPa SSW 6.4 km/h 8 km/h 68% 0 mm 0.0 W/m2
04:57 10.8 °C 5.1 °C 1013.1 hPa SSW 7.9 km/h 8 km/h 68% 0 mm 0.0 W/m2
05:03 10.7 °C 5.2 °C 1013.1 hPa SSW 4.7 km/h 8 km/h 69% 0 mm 0.0 W/m2
05:08 10.7 °C 5.2 °C 1013.1 hPa SSW 6.4 km/h 9.7 km/h 69% 0 mm 0.0 W/m2
05:11 10.6 °C 5.1 °C 1013.1 hPa SSW 4.7 km/h 9.7 km/h 69% 0 mm 0.0 W/m2
05:28 10.5 °C 5.3 °C 1013.4 hPa SSW 6.4 km/h 8 km/h 70% 0 mm 0.0 W/m2
06:25 9.8 °C 5.2 °C 1013.4 hPa SSW 9.7 km/h 12.9 km/h 73% 0 mm 7.0 W/m2
06:27 9.8 °C 5.2 °C 1013.4 hPa SSW 4.7 km/h 9.7 km/h 73% 0 mm 11.0 W/m2
06:36 9.8 °C 5.2 °C 1013.8 hPa Calm     73% 0 mm 14.0 W/m2
06:42 10 °C 5.4 °C 1013.8 hPa Calm     73% 0 mm 32.0 W/m2
06:57 10.6 °C 5.8 °C 1014.1 hPa Calm     72% 0 mm 63.0 W/m2
07:08 11.1 °C 6 °C 1014.1 hPa Calm     71% 0 mm 102.0 W/m2
07:18 11.8 °C 6.1 °C 1014.4 hPa Calm     68% 0 mm 171.0 W/m2
07:33 12.3 °C 5.9 °C 1014.4 hPa SW 11.1 km/h 17.7 km/h 65% 0 mm 236.0 W/m2
07:48 12.7 °C 6.1 °C 1015.1 hPa SW 14.3 km/h 17.7 km/h 64% 0 mm 292.0 W/m2
08:03 13.3 °C 5.7 °C 1014.8 hPa SW 14.3 km/h 17.7 km/h 60% 0 mm 343.0 W/m2
08:19 13.6 °C 5.7 °C 1014.8 hPa SW 9.7 km/h 16.1 km/h 59% 0 mm 380.0 W/m2
08:24 14 °C 5.6 °C 1014.8 hPa SW 13 km/h 17.7 km/h 57% 0 mm 417.0 W/m2
08:39 14.4 °C 5.2 °C 1015.1 hPa SW 9.7 km/h 12.9 km/h 54% 0 mm 452.0 W/m2
08:48 14.8 °C 5.3 °C 1015.1 hPa SW 7.9 km/h 14.5 km/h 53% 0 mm 483.0 W/m2
08:55 15.3 °C 5.2 °C 1015.5 hPa SW 13 km/h 14.5 km/h 51% 0 mm 520.0 W/m2
09:01 15.3 °C 5.2 °C 1015.5 hPa SW 13 km/h 13 km/h 51% 0 mm 538.0 W/m2
09:07 15.6 °C 5.2 °C 1015.5 hPa SW 13 km/h 16.1 km/h 50% 0 mm 552.0 W/m2
09:14 16.2 °C 5.2 °C 1015.1 hPa SW 9.7 km/h 12.9 km/h 48% 0 mm 563.0 W/m2
09:24 16.7 °C 4.7 °C 1015.1 hPa SW 16.3 km/h 16.3 km/h 45% 0 mm 619.0 W/m2
09:29 16.7 °C 4.7 °C 1015.1 hPa SW 16.3 km/h 16.3 km/h 45% 0 mm 619.0 W/m2
09:39 17.1 °C 4.7 °C 1015.5 hPa SW 11.1 km/h 14.5 km/h 44% 0 mm 649.0 W/m2
09:52 18 °C 4.5 °C 1015.5 hPa SW 14.3 km/h 17.7 km/h 41% 0 mm 691.0 W/m2
10:00 18.6 °C 4 °C 1015.1 hPa SW 7.9 km/h 12.9 km/h 38% 0 mm 719.0 W/m2
10:06 18.9 °C 3.9 °C 1015.1 hPa SW 6.4 km/h 14.5 km/h 37% 0 mm 728.0 W/m2
10:12 19.1 °C 3.3 °C 1015.5 hPa SW 13 km/h 16.1 km/h 35% 0 mm 740.0 W/m2
10:19 19.4 °C 3.1 °C 1015.5 hPa SW 14.3 km/h 14.5 km/h 34% 0 mm 754.0 W/m2
10:25 19.9 °C 2.7 °C 1015.1 hPa SW 11.1 km/h 12.9 km/h 32% 0 mm 777.0 W/m2
10:41 20.8 °C 3 °C 1015.1 hPa SW 6.4 km/h 14.5 km/h 31% 0 mm 802.0 W/m2
10:53 21.4 °C 3.1 °C 1015.1 hPa SW 7.9 km/h 16.1 km/h 30% 0 mm 830.0 W/m2
11:03 21.9 °C 3.5 °C 1014.8 hPa SW 9.7 km/h 17.7 km/h 30% 0 mm 849.0 W/m2
11:10 22.1 °C 3.2 °C 1014.8 hPa SW 9.7 km/h 19.3 km/h 29% 0 mm 856.0 W/m2
11:22 22.6 °C 3.7 °C 1014.8 hPa SW 16.3 km/h 17.7 km/h 29% 0 mm 874.0 W/m2
11:34 23 °C 3.5 °C 1014.8 hPa SW 14.3 km/h 17.7 km/h 28% 0 mm 893.0 W/m2
14:25 28.2 °C -0.9 °C 1012.1 hPa Calm     15% 0 mm 826.0 W/m2
14:40 28.4 °C -1.7 °C 1012.1 hPa SW 3.2 km/h 3.2 km/h 14% 0 mm 795.0 W/m2
14:58 28.8 °C -1.4 °C 1011.7 hPa SW 7.9 km/h 8 km/h 14% 0 mm 761.0 W/m2
15:17 28.8 °C -1.4 °C 1011.7 hPa Calm     14% 0 mm 715.0 W/m2
15:25 29.3 °C -2 °C 1011.4 hPa Calm     13% 0 mm 668.0 W/m2
15:46 29.5 °C -1.8 °C 1011.4 hPa SW 9.7 km/h 12.9 km/h 13% 0 mm 626.0 W/m2
16:01 29.5 °C -1.8 °C 1011.1 hPa SW 6.4 km/h 11.3 km/h 13% 0 mm 577.0 W/m2
16:17 29.4 °C -1.9 °C 1011.1 hPa SW 16.3 km/h 19.3 km/h 13% 0 mm 529.0 W/m2
16:26 29.4 °C -3 °C 1010.7 hPa SW 11.1 km/h 17.7 km/h 12% 0 mm 478.0 W/m2
16:46 29.3 °C -3.1 °C 1011.1 hPa SW 13 km/h 17.7 km/h 12% 0 mm 425.0 W/m2
16:52 29.4 °C -3 °C 1011.1 hPa SW 13 km/h 14.5 km/h 12% 0 mm 392.0 W/m2
17:07 29.5 °C -2.9 °C 1011.1 hPa SW 19.5 km/h 22.5 km/h 12% 0 mm 339.0 W/m2
17:21 29.4 °C -3 °C 1011.1 hPa SSW 13 km/h 20.9 km/h 12% 0 mm 301.0 W/m2
17:27 29.2 °C -3.1 °C 1011.1 hPa SSW 13 km/h 19.3 km/h 12% 0 mm 269.0 W/m2
17:37 29.3 °C -3.1 °C 1011.1 hPa SW 11.1 km/h 12.9 km/h 12% 0 mm 236.0 W/m2
17:51 29.3 °C -3.1 °C 1011.1 hPa SW 14.3 km/h 17.7 km/h 12% 0 mm 181.0 W/m2
17:57 29.2 °C -3.1 °C 1011.4 hPa SW 14.3 km/h 16.1 km/h 12% 0 mm 141.0 W/m2
18:12 28.8 °C -3.4 °C 1011.1 hPa SW 13 km/h 17.7 km/h 12% 0 mm 81.0 W/m2
18:22 28.6 °C -2.5 °C 1011.1 hPa SW 17.7 km/h 20.9 km/h 13% 0 mm 47.0 W/m2
18:44 28.1 °C -2.9 °C 1011.4 hPa SSW 16.3 km/h 17.7 km/h 13% 0 mm 14.0 W/m2
18:53 27.4 °C -3.5 °C 1011.4 hPa SW 14.3 km/h 19.3 km/h 13% 0 mm 5.0 W/m2
19:08 26.8 °C -3.9 °C 1011.7 hPa SSW 20.9 km/h 20.9 km/h 13% 0 mm 0.0 W/m2
19:23 26.3 °C -4.3 °C 1011.7 hPa SSW 13 km/h 14.5 km/h 13% 0 mm 0.0 W/m2
19:38 25.8 °C -4.7 °C 1012.1 hPa SSW 16.3 km/h 16.3 km/h 13% 0 mm 0.0 W/m2
19:53 25.4 °C -5 °C 1012.1 hPa SSW 13 km/h 14.5 km/h 13% 0 mm 0.0 W/m2
20:08 25 °C -5.3 °C 1012.1 hPa SSW 13 km/h 16.1 km/h 13% 0 mm 0.0 W/m2
20:23 24.6 °C -5.7 °C 1012.4 hPa SSW 6.4 km/h 11.3 km/h 13% 0 mm 0.0 W/m2
20:38 23.8 °C -6.3 °C 1012.4 hPa SSW 7.9 km/h 8 km/h 13% 0 mm 0.0 W/m2
21:00 23.4 °C -5.6 °C 1012.4 hPa SSW 7.9 km/h 11.3 km/h 14% 0 mm 0.0 W/m2
21:09 23.2 °C -5.8 °C 1012.4 hPa SSW 6.4 km/h 9.7 km/h 14% 0 mm 0.0 W/m2
21:29 22.9 °C -6 °C 1012.4 hPa SSW 7.9 km/h 14.5 km/h 14% 0 mm 0.0 W/m2
21:40 23 °C -5.9 °C 1012.4 hPa SSW 6.4 km/h 9.7 km/h 14% 0 mm 0.0 W/m2
22:05 23.4 °C -6.6 °C 1012.4 hPa SSW 7.9 km/h 12.9 km/h 13% 0 mm 0.0 W/m2
22:15 22.2 °C -7.5 °C 1012.4 hPa Calm     13% 0 mm 0.0 W/m2
22:29 22 °C -7.7 °C 1012.4 hPa SSW 13 km/h 14.5 km/h 13% 0 mm 0.0 W/m2
22:40 21.7 °C -7.9 °C 1012.4 hPa SW 7.9 km/h 8 km/h 13% 0 mm 0.0 W/m2
22:48 21.2 °C -7.4 °C 1012.4 hPa SW 4.7 km/h 8 km/h 14% 0 mm 0.0 W/m2
22:53 21.1 °C -7.5 °C 1012.4 hPa Calm     14% 0 mm 0.0 W/m2
Canyon Roadhouse, Fishriver Canyon, Namibia
Compliments of Weather Underground - 2 mb